Kalvesta, Kansas
Current Conditions -  °F | °C
As of 6:52 PM on Wednesday 22 Oct 2014 (Local Time) from KDDC Reporting Station
Few Clouds Few Clouds  
Wind Chill: 63°   Ceiling: Unl
Heat Index: 63°   Visibility: 10mi
Dew Point: 56°   Wind: 15mph
Humidity: 78%   Direction: 160°SSE
Pressure: 30.03"   Gusts: NA
Location:  37.8692°N, 100.332°W
Report Text: KDDC 222352Z AUTO 16013KT 10SM FEW080 17/13 A3003 RMK AO2 SLP158 T01720133 10217 20172 53004
Loading
Personal Weather Stations






























Interactive Weather Map
Tropical Storm Tracking
New forecast layout! Learn more

10-Day Weather Forecast

Advertisements
Track Severe Weather on mobile